^^
Meteo Knjazevac Station Historical Data
Daily Summary for April 27, 2022 Units:  Both    English   Metric
Daily Weekly Monthly Yearly Custom
  High: Low: Average:
Temperature: 41.1 °F /  5.1 °C 30.6 °F /  -0.8 °C 36 °F /  2.2 °C
Dew Point: 39.1 °F /  3.9 °C 30.3 °F /  -0.9 °C 35.2 °F /  1.8 °C
Humidity: 99% 89% 97%
Wind Speed: 4.4mph /  7.1km/h - 1.7mph /  2.7km/h
Wind Gust: 6mph /  9.7km/h - -
Wind- - WSW
Pressure: 30.32 in /  1026.6 hPa 30.21 in /  1022.9 hPa -
Precipitation: 0.11 in /  2.79 mm    
Historical Graphs
 
 
Tabular Data for April 27, 2022
Time Temperature Dew Point Pressure Wind Wind Speed Wind Gust Humidity Rainfall Rate (Hourly) solar Conditions
00:04 30.8 °F /  -0.7 °C 30.6 °F /  -0.8 °C 30.30in /  1026hPa North 0.9mph /  1.4km/h 2mph /  3.2km/h 99% 0.00in /  0mm 0 W/m2
00:09 30.7 °F /  -0.7 °C 30.5 °F /  -0.8 °C 30.30in /  1026hPa NNW 1.1mph /  1.8km/h 2mph /  3.2km/h 99% 0.00in /  0mm 0 W/m2
00:14 30.7 °F /  -0.7 °C 30.5 °F /  -0.8 °C 30.30in /  1026hPa NNW 1mph /  1.6km/h 1mph /  1.6km/h 99% 0.00in /  0mm 0 W/m2
00:19 30.7 °F /  -0.7 °C 30.5 °F /  -0.8 °C 30.30in /  1026hPa NW 1.4mph /  2.3km/h 2mph /  3.2km/h 99% 0.00in /  0mm 0 W/m2
00:24 30.7 °F /  -0.7 °C 30.5 °F /  -0.8 °C 30.30in /  1026hPa NNW 1.8mph /  2.9km/h 2mph /  3.2km/h 99% 0.00in /  0mm 0 W/m2
00:29 30.7 °F /  -0.7 °C 30.4 °F /  -0.9 °C 30.30in /  1026hPa NNW 0.8mph /  1.3km/h 3mph /  4.8km/h 99% 0.00in /  0mm 0 W/m2
00:34 30.7 °F /  -0.7 °C 30.5 °F /  -0.8 °C 30.30in /  1026hPa NNW 0.4mph /  0.6km/h 2mph /  3.2km/h 99% 0.00in /  0mm 0 W/m2
00:39 30.7 °F /  -0.7 °C 30.5 °F /  -0.8 °C 30.30in /  1026hPa NNW 1.1mph /  1.8km/h 2mph /  3.2km/h 99% 0.00in /  0mm 0 W/m2
00:44 30.7 °F /  -0.7 °C 30.5 °F /  -0.8 °C 30.30in /  1026hPa North 0.4mph /  0.6km/h 2mph /  3.2km/h 99% 0.00in /  0mm 0 W/m2
00:49 30.7 °F /  -0.7 °C 30.5 °F /  -0.8 °C 30.30in /  1026hPa North 0.4mph /  0.6km/h 1mph /  1.6km/h 99% 0.00in /  0mm 0 W/m2
00:54 30.7 °F /  -0.7 °C 30.5 °F /  -0.8 °C 30.30in /  1026hPa Calm   1mph /  1.6km/h 99% 0.00in /  0mm 0 W/m2
00:59 30.7 °F /  -0.7 °C 30.4 °F /  -0.9 °C 30.30in /  1026hPa West 1.3mph /  2.1km/h 1.1mph /  1.8km/h 99% 0.00in /  0mm 0 W/m2
01:04 30.6 °F /  -0.8 °C 30.3 °F /  -0.9 °C 30.30in /  1026hPa WNW 0.8mph /  1.3km/h 2mph /  3.2km/h 99% 0.00in /  0mm 0 W/m2
01:09 30.6 °F /  -0.8 °C 30.3 °F /  -0.9 °C 30.30in /  1026hPa NNW 1.5mph /  2.4km/h 2mph /  3.2km/h 99% 0.00in /  0mm 0 W/m2
01:14 30.6 °F /  -0.8 °C 30.3 °F /  -0.9 °C 30.30in /  1026hPa North 0.9mph /  1.4km/h 2mph /  3.2km/h 99% 0.00in /  0mm 0 W/m2
01:19 30.6 °F /  -0.8 °C 30.3 °F /  -0.9 °C 30.30in /  1026hPa NNW 1.6mph /  2.6km/h 1mph /  1.6km/h 99% 0.00in /  0mm 0 W/m2
01:24 30.6 °F /  -0.8 °C 30.3 °F /  -0.9 °C 30.30in /  1026hPa NNW 2.5mph /  4km/h 2mph /  3.2km/h 99% 0.00in /  0mm 0 W/m2
01:29 30.6 °F /  -0.8 °C 30.3 °F /  -0.9 °C 30.30in /  1026hPa North 2mph /  3.2km/h 3mph /  4.8km/h 99% 0.00in /  0mm 0 W/m2
01:34 30.6 °F /  -0.8 °C 30.4 °F /  -0.9 °C 30.30in /  1026hPa NE 0.3mph /  0.5km/h 3mph /  4.8km/h 99% 0.00in /  0mm 0 W/m2
01:39 30.7 °F /  -0.7 °C 30.5 °F /  -0.8 °C 30.30in /  1026hPa SE 2.2mph /  3.5km/h 1.6mph /  2.6km/h 99% 0.00in /  0mm 0 W/m2
01:44 30.7 °F /  -0.7 °C 30.5 °F /  -0.8 °C 30.31in /  1026.3hPa SSE 0.5mph /  0.8km/h 3mph /  4.8km/h 99% 0.00in /  0mm 0 W/m2
01:49 30.7 °F /  -0.7 °C 30.5 °F /  -0.8 °C 30.31in /  1026.3hPa WNW 1.8mph /  2.9km/h 1mph /  1.6km/h 99% 0.00in /  0mm 0 W/m2
01:54 30.7 °F /  -0.7 °C 30.5 °F /  -0.8 °C 30.30in /  1026hPa NW 0.8mph /  1.3km/h 2mph /  3.2km/h 99% 0.00in /  0mm 0 W/m2
01:59 30.8 °F /  -0.7 °C 30.6 °F /  -0.8 °C 30.30in /  1026hPa NE 1.6mph /  2.6km/h 1mph /  1.6km/h 99% 0.00in /  0mm 0 W/m2
02:04 30.9 °F /  -0.6 °C 30.7 °F /  -0.7 °C 30.31in /  1026.3hPa NNE 0.8mph /  1.3km/h 2mph /  3.2km/h 99% 0.00in /  0mm 0 W/m2
02:09 31.1 °F /  -0.5 °C 30.9 °F /  -0.6 °C 30.31in /  1026.3hPa NNW 2.2mph /  3.5km/h 2mph /  3.2km/h 99% 0.00in /  0mm 0 W/m2
02:14 31.1 °F /  -0.5 °C 30.9 °F /  -0.6 °C 30.30in /  1026hPa NNW 1.5mph /  2.4km/h 3mph /  4.8km/h 99% 0.00in /  0mm 0 W/m2
02:19 31 °F /  -0.6 °C 30.8 °F /  -0.7 °C 30.30in /  1026hPa Calm   2mph /  3.2km/h 99% 0.00in /  0mm 0 W/m2
02:24 31.1 °F /  -0.5 °C 30.9 °F /  -0.6 °C 30.30in /  1026hPa North 0.7mph /  1.1km/h 0.4mph /  0.6km/h 99% 0.00in /  0mm 0 W/m2
02:29 31.1 °F /  -0.5 °C 30.9 °F /  -0.6 °C 30.30in /  1026hPa NNW 0.3mph /  0.5km/h 2mph /  3.2km/h 99% 0.00in /  0mm 0 W/m2
02:34 31.1 °F /  -0.5 °C 30.9 °F /  -0.6 °C 30.30in /  1026hPa NW 1.1mph /  1.8km/h 1.6mph /  2.6km/h 99% 0.00in /  0mm 0 W/m2
02:39 31.1 °F /  -0.5 °C 30.9 °F /  -0.6 °C 30.30in /  1026hPa NNW 0.3mph /  0.5km/h 2mph /  3.2km/h 99% 0.00in /  0mm 0 W/m2
02:44 31.1 °F /  -0.5 °C 30.9 °F /  -0.6 °C 30.30in /  1026hPa NNW 0.8mph /  1.3km/h 1mph /  1.6km/h 99% 0.00in /  0mm 0 W/m2
02:49 31 °F /  -0.6 °C 30.8 °F /  -0.7 °C 30.30in /  1026hPa WNW 0.4mph /  0.6km/h 2mph /  3.2km/h 99% 0.00in /  0mm 0 W/m2
02:54 31.1 °F /  -0.5 °C 30.9 °F /  -0.6 °C 30.30in /  1026hPa WNW 2.1mph /  3.4km/h 3mph /  4.8km/h 99% 0.00in /  0mm 0 W/m2
02:59 31.1 °F /  -0.5 °C 30.9 °F /  -0.6 °C 30.31in /  1026.3hPa NW 1.3mph /  2.1km/h 2mph /  3.2km/h 99% 0.00in /  0mm 0 W/m2
03:04 31.1 °F /  -0.5 °C 30.9 °F /  -0.6 °C 30.30in /  1026hPa NNW 1.6mph /  2.6km/h 2mph /  3.2km/h 99% 0.00in /  0mm 0 W/m2
03:09 31.1 °F /  -0.5 °C 30.9 °F /  -0.6 °C 30.30in /  1026hPa NNW 1mph /  1.6km/h 2mph /  3.2km/h 99% 0.00in /  0mm 0 W/m2
03:14 31.3 °F /  -0.4 °C 31 °F /  -0.6 °C 30.30in /  1026hPa WNW 0.8mph /  1.3km/h 2mph /  3.2km/h 99% 0.00in /  0mm 0 W/m2
03:19 31.3 °F /  -0.4 °C 31 °F /  -0.6 °C 30.30in /  1026hPa West 1.1mph /  1.8km/h 2mph /  3.2km/h 99% 0.00in /  0mm 0 W/m2
03:24 31.4 °F /  -0.3 °C 31.1 °F /  -0.5 °C 30.30in /  1026hPa WNW 0.7mph /  1.1km/h 2mph /  3.2km/h 99% 0.00in /  0mm 0 W/m2
03:29 31.4 °F /  -0.3 °C 31.1 °F /  -0.5 °C 30.30in /  1026hPa WNW 0.3mph /  0.5km/h 1mph /  1.6km/h 99% 0.00in /  0mm 0 W/m2
03:34 31.5 °F /  -0.3 °C 31.2 °F /  -0.4 °C 30.30in /  1026hPa WNW 1.2mph /  1.9km/h 2mph /  3.2km/h 99% 0.00in /  0mm 0 W/m2
03:39 31.4 °F /  -0.3 °C 31.1 °F /  -0.5 °C 30.30in /  1026hPa West 0.4mph /  0.6km/h 2mph /  3.2km/h 99% 0.00in /  0mm 0 W/m2
03:44 31.4 °F /  -0.3 °C 31.1 °F /  -0.5 °C 30.30in /  1026hPa West 1.7mph /  2.7km/h 1.6mph /  2.6km/h 99% 0.00in /  0mm 0 W/m2
03:49 31.3 °F /  -0.4 °C 31 °F /  -0.6 °C 30.30in /  1026hPa West 2.1mph /  3.4km/h 2mph /  3.2km/h 99% 0.00in /  0mm 0 W/m2
03:54 31.3 °F /  -0.4 °C 31 °F /  -0.6 °C 30.30in /  1026hPa WNW 2.2mph /  3.5km/h 2mph /  3.2km/h 99% 0.00in /  0mm 0 W/m2
03:59 31.4 °F /  -0.3 °C 31.1 °F /  -0.5 °C 30.30in /  1026hPa WNW 2mph /  3.2km/h 2mph /  3.2km/h 99% 0.00in /  0mm 0 W/m2
04:04 31.5 °F /  -0.3 °C 31.2 °F /  -0.4 °C 30.30in /  1026hPa WNW 2.1mph /  3.4km/h 2mph /  3.2km/h 99% 0.00in /  0mm 0 W/m2
04:09 31.5 °F /  -0.3 °C 31.2 °F /  -0.4 °C 30.30in /  1026hPa NW 1.5mph /  2.4km/h 2mph /  3.2km/h 99% 0.00in /  0mm 0 W/m2
04:14 31.5 °F /  -0.3 °C 31.2 °F /  -0.4 °C 30.30in /  1026hPa NW 0.2mph /  0.3km/h 2mph /  3.2km/h 99% 0.00in /  0mm 0 W/m2
04:19 31.5 °F /  -0.3 °C 31.2 °F /  -0.4 °C 30.30in /  1026hPa Calm     99% 0.00in /  0mm 0 W/m2
04:24 31.5 °F /  -0.3 °C 31.2 °F /  -0.4 °C 30.30in /  1026hPa Calm     99% 0.00in /  0mm 0 W/m2
04:29 31.5 °F /  -0.3 °C 31.2 °F /  -0.4 °C 30.30in /  1026hPa North 0.2mph /  0.3km/h 0.2mph /  0.3km/h 99% 0.00in /  0mm 0 W/m2
04:34 31.6 °F /  -0.2 °C 31.4 °F /  -0.3 °C 30.30in /  1026hPa North 1mph /  1.6km/h 1.6mph /  2.6km/h 99% 0.00in /  0mm 0 W/m2
04:39 31.6 °F /  -0.2 °C 31.4 °F /  -0.3 °C 30.30in /  1026hPa NNW 1.6mph /  2.6km/h 2mph /  3.2km/h 99% 0.00in /  0mm 0 W/m2
04:44 31.6 °F /  -0.2 °C 31.4 °F /  -0.3 °C 30.30in /  1026hPa WNW 1.6mph /  2.6km/h 2mph /  3.2km/h 99% 0.00in /  0mm 0 W/m2
04:49 31.6 °F /  -0.2 °C 31.4 °F /  -0.3 °C 30.30in /  1026hPa NW 1.4mph /  2.3km/h 2mph /  3.2km/h 99% 0.00in /  0mm 0 W/m2
04:54 31.6 °F /  -0.2 °C 31.4 °F /  -0.3 °C 30.30in /  1026hPa NW 1.8mph /  2.9km/h 2mph /  3.2km/h 99% 0.00in /  0mm 0 W/m2
04:59 31.8 °F /  -0.1 °C 31.6 °F /  -0.2 °C 30.30in /  1026hPa NW 1.3mph /  2.1km/h 2mph /  3.2km/h 99% 0.00in /  0mm 0 W/m2
05:04 31.8 °F /  -0.1 °C 31.6 °F /  -0.2 °C 30.30in /  1026hPa NNW 0.5mph /  0.8km/h 2mph /  3.2km/h 99% 0.00in /  0mm 0 W/m2
05:09 31.8 °F /  -0.1 °C 31.6 °F /  -0.2 °C 30.30in /  1026hPa NNW 1.5mph /  2.4km/h 1mph /  1.6km/h 99% 0.00in /  0mm 0 W/m2
05:14 31.8 °F /  -0.1 °C 31.6 °F /  -0.2 °C 30.30in /  1026hPa NW 0.9mph /  1.4km/h 2mph /  3.2km/h 99% 0.00in /  0mm 0 W/m2
05:19 31.8 °F /  -0.1 °C 31.6 °F /  -0.2 °C 30.30in /  1026hPa WNW 1.3mph /  2.1km/h 2mph /  3.2km/h 99% 0.00in /  0mm 0 W/m2
05:24 31.8 °F /  -0.1 °C 31.6 °F /  -0.2 °C 30.30in /  1026hPa NW 1.1mph /  1.8km/h 2mph /  3.2km/h 99% 0.00in /  0mm 0 W/m2
05:29 31.8 °F /  -0.1 °C 31.6 °F /  -0.2 °C 30.30in /  1026hPa WNW 0.2mph /  0.3km/h 2mph /  3.2km/h 99% 0.00in /  0mm 0 W/m2
05:34 31.8 °F /  -0.1 °C 31.6 °F /  -0.2 °C 30.30in /  1026hPa WNW 1.1mph /  1.8km/h 1mph /  1.6km/h 99% 0.00in /  0mm 0 W/m2
05:39 31.8 °F /  -0.1 °C 31.6 °F /  -0.2 °C 30.30in /  1026hPa NW 0.7mph /  1.1km/h 1mph /  1.6km/h 99% 0.00in /  0mm 0 W/m2
05:44 31.8 °F /  -0.1 °C 31.6 °F /  -0.2 °C 30.30in /  1026hPa NNW 1.2mph /  1.9km/h 1mph /  1.6km/h 99% 0.00in /  0mm 0 W/m2
05:49 31.8 °F /  -0.1 °C 31.6 °F /  -0.2 °C 30.30in /  1026hPa NNW 1.9mph /  3.1km/h 2mph /  3.2km/h 99% 0.00in /  0mm 0 W/m2
05:54 31.8 °F /  -0.1 °C 31.6 °F /  -0.2 °C 30.30in /  1026hPa NNW 1.1mph /  1.8km/h 2mph /  3.2km/h 99% 0.00in /  0mm 0 W/m2
05:59 31.8 °F /  -0.1 °C 31.6 °F /  -0.2 °C 30.30in /  1026hPa NW 1.7mph /  2.7km/h 1.8mph /  2.9km/h 99% 0.00in /  0mm 0 W/m2
06:04 31.9 °F /  -0.1 °C 31.7 °F /  -0.2 °C 30.30in /  1026hPa NW 1.2mph /  1.9km/h 2mph /  3.2km/h 99% 0.00in /  0mm 0 W/m2
06:09 31.9 °F /  -0.1 °C 31.7 °F /  -0.2 °C 30.30in /  1026hPa NNW 1.3mph /  2.1km/h 2mph /  3.2km/h 99% 0.00in /  0mm 0 W/m2
06:14 32 °F /  0 °C 31.8 °F /  -0.1 °C 30.30in /  1026hPa NW 2.2mph /  3.5km/h 2mph /  3.2km/h 99% 0.00in /  0mm 0 W/m2
06:19 32 °F /  0 °C 31.8 °F /  -0.1 °C 30.31in /  1026.3hPa WNW 1.8mph /  2.9km/h 2mph /  3.2km/h 99% 0.00in /  0mm 0 W/m2
06:24 32 °F /  0 °C 31.8 °F /  -0.1 °C 30.31in /  1026.3hPa WNW 2.1mph /  3.4km/h 2mph /  3.2km/h 99% 0.00in /  0mm 0 W/m2
06:29 32 °F /  0 °C 31.8 °F /  -0.1 °C 30.31in /  1026.3hPa NW 0.2mph /  0.3km/h 2mph /  3.2km/h 99% 0.00in /  0mm 0 W/m2
06:34 32 °F /  0 °C 31.8 °F /  -0.1 °C 30.31in /  1026.3hPa Calm     99% 0.00in /  0mm 0 W/m2
06:39 32.2 °F /  0.1 °C 31.9 °F /  -0.1 °C 30.31in /  1026.3hPa Calm     99% 0.00in /  0mm 1 W/m2
06:44 32.2 °F /  0.1 °C 31.9 °F /  -0.1 °C 30.31in /  1026.3hPa NW 0.9mph /  1.4km/h 1.1mph /  1.8km/h 99% 0.00in /  0mm 1 W/m2
06:49 32.2 °F /  0.1 °C 31.9 °F /  -0.1 °C 30.31in /  1026.3hPa North 0.9mph /  1.4km/h 2mph /  3.2km/h 99% 0.00in /  0mm 2 W/m2
06:54 32.2 °F /  0.1 °C 31.9 °F /  -0.1 °C 30.31in /  1026.3hPa NNW 1.2mph /  1.9km/h 1mph /  1.6km/h 99% 0.00in /  0mm 3 W/m2
06:59 32.3 °F /  0.2 °C 32 °F /  0 °C 30.31in /  1026.3hPa WNW 0.8mph /  1.3km/h 1mph /  1.6km/h 99% 0.00in /  0mm 4 W/m2
07:04 32.4 °F /  0.2 °C 32.1 °F /  0.1 °C 30.31in /  1026.3hPa WNW 0.9mph /  1.4km/h 1mph /  1.6km/h 99% 0.00in /  0mm 7 W/m2
07:09 32.4 °F /  0.2 °C 32.1 °F /  0.1 °C 30.31in /  1026.3hPa WNW 0.6mph /  1km/h 1mph /  1.6km/h 99% 0.00in /  0mm 9 W/m2
07:14 32.4 °F /  0.2 °C 32.1 °F /  0.1 °C 30.31in /  1026.3hPa West 1.8mph /  2.9km/h 1.3mph /  2.1km/h 99% 0.00in /  0mm 11 W/m2
07:19 32.4 °F /  0.2 °C 32.1 °F /  0.1 °C 30.32in /  1026.6hPa WNW 2.1mph /  3.4km/h 2mph /  3.2km/h 99% 0.00in /  0mm 12 W/m2
07:24 32.4 °F /  0.2 °C 32.1 °F /  0.1 °C 30.32in /  1026.6hPa WNW 2mph /  3.2km/h 2mph /  3.2km/h 99% 0.00in /  0mm 13 W/m2
07:29 32.4 °F /  0.2 °C 32.1 °F /  0.1 °C 30.32in /  1026.6hPa WNW 2.3mph /  3.7km/h 2mph /  3.2km/h 99% 0.00in /  0mm 15 W/m2
07:34 32.5 °F /  0.3 °C 32.3 °F /  0.2 °C 30.32in /  1026.6hPa WNW 2.2mph /  3.5km/h 2mph /  3.2km/h 99% 0.00in /  0mm 18 W/m2
07:39 32.5 °F /  0.3 °C 32.3 °F /  0.2 °C 30.32in /  1026.6hPa WNW 2.5mph /  4km/h 2mph /  3.2km/h 99% 0.00in /  0mm 20 W/m2
07:44 32.6 °F /  0.3 °C 32.4 °F /  0.2 °C 30.31in /  1026.3hPa WNW 2.5mph /  4km/h 3mph /  4.8km/h 99% 0.00in /  0mm 24 W/m2
07:49 32.8 °F /  0.4 °C 32.6 °F /  0.3 °C 30.32in /  1026.6hPa NW 2.3mph /  3.7km/h 2mph /  3.2km/h 99% 0.00in /  0mm 25 W/m2
07:54 32.9 °F /  0.5 °C 32.7 °F /  0.4 °C 30.32in /  1026.6hPa WNW 2.2mph /  3.5km/h 2mph /  3.2km/h 99% 0.00in /  0mm 27 W/m2
07:59 33.1 °F /  0.6 °C 32.8 °F /  0.4 °C 30.32in /  1026.6hPa WNW 2.2mph /  3.5km/h 2mph /  3.2km/h 99% 0.00in /  0mm 31 W/m2
08:04 33.1 °F /  0.6 °C 32.8 °F /  0.4 °C 30.32in /  1026.6hPa West 2.2mph /  3.5km/h 2mph /  3.2km/h 99% 0.00in /  0mm 31 W/m2
08:09 33.3 °F /  0.7 °C 33 °F /  0.6 °C 30.32in /  1026.6hPa WNW 1.9mph /  3.1km/h 2mph /  3.2km/h 99% 0.00in /  0mm 34 W/m2
08:14 33.3 °F /  0.7 °C 33 °F /  0.6 °C 30.31in /  1026.3hPa WNW 1.9mph /  3.1km/h 2mph /  3.2km/h 99% 0.00in /  0mm 38 W/m2
08:19 33.4 °F /  0.8 °C 33.2 °F /  0.7 °C 30.31in /  1026.3hPa WNW 2.6mph /  4.2km/h 2mph /  3.2km/h 99% 0.00in /  0mm 43 W/m2
08:24 33.4 °F /  0.8 °C 33.2 °F /  0.7 °C 30.31in /  1026.3hPa WNW 2.5mph /  4km/h 3mph /  4.8km/h 99% 0.00in /  0mm 45 W/m2
08:29 33.6 °F /  0.9 °C 33.4 °F /  0.8 °C 30.31in /  1026.3hPa West 2.5mph /  4km/h 3mph /  4.8km/h 99% 0.00in /  0mm 45 W/m2
08:34 33.6 °F /  0.9 °C 33.4 °F /  0.8 °C 30.31in /  1026.3hPa WNW 1.3mph /  2.1km/h 3mph /  4.8km/h 99% 0.00in /  0mm 48 W/m2
08:39 33.8 °F /  1 °C 33.5 °F /  0.8 °C 30.31in /  1026.3hPa WNW 2.3mph /  3.7km/h 2.5mph /  4km/h 99% 0.00in /  0mm 49 W/m2
08:44 34 °F /  1.1 °C 33.7 °F /  0.9 °C 30.31in /  1026.3hPa WNW 3.3mph /  5.3km/h 3mph /  4.8km/h 99% 0.00in /  0mm 49 W/m2
08:49 34 °F /  1.1 °C 33.7 °F /  0.9 °C 30.31in /  1026.3hPa West 2.5mph /  4km/h 3mph /  4.8km/h 99% 0.00in /  0mm 48 W/m2
08:54 34.2 °F /  1.2 °C 33.9 °F /  1.1 °C 30.32in /  1026.6hPa West 2.6mph /  4.2km/h 4mph /  6.4km/h 99% 0.00in /  0mm 51 W/m2
08:59 34.2 °F /  1.2 °C 33.9 °F /  1.1 °C 30.32in /  1026.6hPa West 3mph /  4.8km/h 3mph /  4.8km/h 99% 0.00in /  0mm 53 W/m2
09:04 34.3 °F /  1.3 °C 34.1 °F /  1.2 °C 30.32in /  1026.6hPa West 3.2mph /  5.1km/h 3mph /  4.8km/h 99% 0.00in /  0mm 59 W/m2
09:09 34.3 °F /  1.3 °C 34.1 °F /  1.2 °C 30.32in /  1026.6hPa West 2.5mph /  4km/h 3mph /  4.8km/h 99% 0.00in /  0mm 62 W/m2
09:14 34.5 °F /  1.4 °C 34.3 °F /  1.3 °C 30.31in /  1026.3hPa WNW 2.3mph /  3.7km/h 3mph /  4.8km/h 99% 0.00in /  0mm 67 W/m2
09:19 34.7 °F /  1.5 °C 34.4 °F /  1.3 °C 30.31in /  1026.3hPa West 2.9mph /  4.7km/h 2.7mph /  4.3km/h 99% 0.00in /  0mm 76 W/m2
09:24 34.9 °F /  1.6 °C 34.6 °F /  1.4 °C 30.31in /  1026.3hPa West 3.5mph /  5.6km/h 3.1mph /  5km/h 99% 0.00in /  0mm 83 W/m2
09:29 35.1 °F /  1.7 °C 34.8 °F /  1.6 °C 30.31in /  1026.3hPa West 3.5mph /  5.6km/h 5mph /  8km/h 99% 0.00in /  0mm 86 W/m2
09:34 35.2 °F /  1.8 °C 34.9 °F /  1.6 °C 30.31in /  1026.3hPa West 2.7mph /  4.3km/h 3mph /  4.8km/h 99% 0.00in /  0mm 92 W/m2
09:39 35.3 °F /  1.8 °C 35.1 °F /  1.7 °C 30.31in /  1026.3hPa WNW 1.4mph /  2.3km/h 3mph /  4.8km/h 99% 0.00in /  0mm 96 W/m2
09:44 35.5 °F /  1.9 °C 35.2 °F /  1.8 °C 30.31in /  1026.3hPa NW 0.2mph /  0.3km/h 2mph /  3.2km/h 99% 0.00in /  0mm 99 W/m2
09:49 35.7 °F /  2.1 °C 35.4 °F /  1.9 °C 30.31in /  1026.3hPa North 0.5mph /  0.8km/h 0.9mph /  1.4km/h 99% 0.00in /  0mm 101 W/m2
09:54 35.9 °F /  2.2 °C 35.6 °F /  2 °C 30.31in /  1026.3hPa NNW 1.3mph /  2.1km/h 1mph /  1.6km/h 99% 0.00in /  0mm 101 W/m2
09:59 36 °F /  2.2 °C 35.7 °F /  2.1 °C 30.31in /  1026.3hPa NW 1mph /  1.6km/h 2mph /  3.2km/h 99% 0.00in /  0mm 109 W/m2
10:04 36.1 °F /  2.3 °C 35.9 °F /  2.2 °C 30.31in /  1026.3hPa NW 0.3mph /  0.5km/h 1mph /  1.6km/h 99% 0.00in /  0mm 114 W/m2
10:09 36.2 °F /  2.3 °C 36 °F /  2.2 °C 30.31in /  1026.3hPa NNW 1.1mph /  1.8km/h 1mph /  1.6km/h 99% 0.00in /  0mm 123 W/m2
10:14 36.4 °F /  2.4 °C 36.2 °F /  2.3 °C 30.31in /  1026.3hPa NW 0.6mph /  1km/h 1mph /  1.6km/h 99% 0.00in /  0mm 129 W/m2
10:19 36.7 °F /  2.6 °C 36.4 °F /  2.4 °C 30.30in /  1026hPa WNW 0.9mph /  1.4km/h 1mph /  1.6km/h 99% 0.00in /  0mm 134 W/m2
10:24 36.9 °F /  2.7 °C 36.7 °F /  2.6 °C 30.30in /  1026hPa West 1mph /  1.6km/h 1mph /  1.6km/h 99% 0.00in /  0mm 139 W/m2
10:29 37 °F /  2.8 °C 36.8 °F /  2.7 °C 30.30in /  1026hPa NW 0.8mph /  1.3km/h 2mph /  3.2km/h 99% 0.00in /  0mm 147 W/m2
10:34 37.2 °F /  2.9 °C 37 °F /  2.8 °C 30.30in /  1026hPa North 0.7mph /  1.1km/h 2mph /  3.2km/h 99% 0.00in /  0mm 151 W/m2
10:39 37.4 °F /  3 °C 37.1 °F /  2.8 °C 30.30in /  1026hPa West 1.2mph /  1.9km/h 1mph /  1.6km/h 99% 0.00in /  0mm 160 W/m2
10:44 37.6 °F /  3.1 °C 37.2 °F /  2.9 °C 30.30in /  1026hPa SSW 1.4mph /  2.3km/h 2mph /  3.2km/h 98.5% 0.00in /  0mm 169 W/m2
10:49 37.8 °F /  3.2 °C 37.2 °F /  2.9 °C 30.30in /  1026hPa NE 1.1mph /  1.8km/h 2mph /  3.2km/h 98% 0.00in /  0mm 170 W/m2
10:54 37.9 °F /  3.3 °C 37.3 °F /  2.9 °C 30.30in /  1026hPa North 1.5mph /  2.4km/h 2mph /  3.2km/h 98% 0.00in /  0mm 172 W/m2
10:59 38 °F /  3.3 °C 37.5 °F /  3.1 °C 30.29in /  1025.6hPa NNW 1.2mph /  1.9km/h 2mph /  3.2km/h 98% 0.00in /  0mm 176 W/m2
11:04 38.3 °F /  3.5 °C 37.8 °F /  3.2 °C 30.29in /  1025.6hPa North 2.6mph /  4.2km/h 2mph /  3.2km/h 98% 0.00in /  0mm 175 W/m2
11:09 38.6 °F /  3.7 °C 37.7 °F /  3.2 °C 30.29in /  1025.6hPa WNW 2.7mph /  4.3km/h 3mph /  4.8km/h 96.7% 0.00in /  0mm 171 W/m2
11:14 38.8 °F /  3.8 °C 37.8 °F /  3.2 °C 30.29in /  1025.6hPa WNW 1.8mph /  2.9km/h 3mph /  4.8km/h 96% 0.00in /  0mm 172 W/m2
11:19 38.9 °F /  3.8 °C 37.9 °F /  3.3 °C 30.29in /  1025.6hPa NW 2.5mph /  4km/h 3mph /  4.8km/h 96% 0.00in /  0mm 176 W/m2
11:24 39 °F /  3.9 °C 38 °F /  3.3 °C 30.29in /  1025.6hPa NW 1.4mph /  2.3km/h 3mph /  4.8km/h 96% 0.00in /  0mm 186 W/m2
11:29 39.1 °F /  3.9 °C 38 °F /  3.3 °C 30.28in /  1025.3hPa North 1.5mph /  2.4km/h 2mph /  3.2km/h 95.6% 0.00in /  0mm 189 W/m2
11:34 39.2 °F /  4 °C 37.9 °F /  3.3 °C 30.28in /  1025.3hPa NE 1.9mph /  3.1km/h 3mph /  4.8km/h 95% 0.00in /  0mm 186 W/m2
11:39 39.2 °F /  4 °C 37.9 °F /  3.3 °C 30.28in /  1025.3hPa NNW 0.1mph /  0.2km/h 2mph /  3.2km/h 95% 0.00in /  0mm 185 W/m2
11:44 39.2 °F /  4 °C 37.8 °F /  3.2 °C 30.28in /  1025.3hPa West 0.5mph /  0.8km/h   94.7% 0.00in /  0mm 178 W/m2
11:49 39.3 °F /  4.1 °C 37.9 °F /  3.3 °C 30.28in /  1025.3hPa West 1.1mph /  1.8km/h 1mph /  1.6km/h 94.8% 0.00in /  0mm 168 W/m2
11:54 39.4 °F /  4.1 °C 37.9 °F /  3.3 °C 30.28in /  1025.3hPa WNW 2.2mph /  3.5km/h 2.2mph /  3.5km/h 94.3% 0.00in /  0mm 161 W/m2
11:59 39.6 °F /  4.2 °C 38 °F /  3.3 °C 30.28in /  1025.3hPa WNW 2.5mph /  4km/h 3mph /  4.8km/h 94.1% 0.00in /  0mm 160 W/m2
12:04 39.7 °F /  4.3 °C 38.1 °F /  3.4 °C 30.28in /  1025.3hPa West 2.7mph /  4.3km/h 2mph /  3.2km/h 93.6% 0.00in /  0mm 156 W/m2
12:09 39.6 °F /  4.2 °C 37.7 °F /  3.2 °C 30.28in /  1025.3hPa WSW 2.1mph /  3.4km/h 3mph /  4.8km/h 93% 0.00in /  0mm 144 W/m2
12:14 39.6 °F /  4.2 °C 37.7 °F /  3.2 °C 30.27in /  1024.9hPa SW 0.9mph /  1.4km/h 2mph /  3.2km/h 93% 0.00in /  0mm 148 W/m2
12:19 39.7 °F /  4.3 °C 37.9 °F /  3.3 °C 30.27in /  1024.9hPa East 1.8mph /  2.9km/h 1.6mph /  2.6km/h 93% 0.00in /  0mm 148 W/m2
12:24 39.9 °F /  4.4 °C 38.1 °F /  3.4 °C 30.27in /  1024.9hPa NNE 0.6mph /  1km/h 2mph /  3.2km/h 93% 0.00in /  0mm 138 W/m2
12:29 40.1 °F /  4.5 °C 38.2 °F /  3.4 °C 30.27in /  1024.9hPa NW 1.8mph /  2.9km/h 1.3mph /  2.1km/h 93% 0.00in /  0mm 129 W/m2
12:34 40.2 °F /  4.6 °C 38.3 °F /  3.5 °C 30.27in /  1024.9hPa NW 2.3mph /  3.7km/h 2mph /  3.2km/h 93% 0.00in /  0mm 134 W/m2
12:39 40.3 °F /  4.6 °C 38.4 °F /  3.6 °C 30.27in /  1024.9hPa NNW 2mph /  3.2km/h 3mph /  4.8km/h 93% 0.00in /  0mm 133 W/m2
12:44 40.3 °F /  4.6 °C 38.4 °F /  3.6 °C 30.27in /  1024.9hPa North 1.5mph /  2.4km/h 2mph /  3.2km/h 93% 0.00in /  0mm 129 W/m2
12:49 40.3 °F /  4.6 °C 38.2 °F /  3.4 °C 30.27in /  1024.9hPa NNW 1.4mph /  2.3km/h 2mph /  3.2km/h 92.3% 0.00in /  0mm 127 W/m2
12:54 40.4 °F /  4.7 °C 38.2 °F /  3.4 °C 30.27in /  1024.9hPa NNW 2.1mph /  3.4km/h 2mph /  3.2km/h 91.7% 0.00in /  0mm 126 W/m2
12:59 40.5 °F /  4.7 °C 38 °F /  3.3 °C 30.27in /  1024.9hPa NNW 1.9mph /  3.1km/h 2mph /  3.2km/h 91% 0.00in /  0mm 119 W/m2
13:04 40.5 °F /  4.7 °C 38 °F /  3.3 °C 30.27in /  1024.9hPa NW 1.4mph /  2.3km/h 2mph /  3.2km/h 91% 0.00in /  0mm 114 W/m2
13:09 40.5 °F /  4.7 °C 38 °F /  3.3 °C 30.27in /  1024.9hPa North 0.8mph /  1.3km/h 2mph /  3.2km/h 91% 0.00in /  0mm 108 W/m2
13:14 40.6 °F /  4.8 °C 38.2 °F /  3.4 °C 30.27in /  1024.9hPa Calm   1mph /  1.6km/h 91% 0.00in /  0mm 109 W/m2
13:19 40.6 °F /  4.8 °C 38.1 °F /  3.4 °C 30.26in /  1024.6hPa NE 2mph /  3.2km/h 1.6mph /  2.6km/h 91% 0.00in /  0mm 108 W/m2
13:24 40.6 °F /  4.8 °C 38.1 °F /  3.4 °C 30.26in /  1024.6hPa NE 2.2mph /  3.5km/h 3mph /  4.8km/h 90.6% 0.00in /  0mm 105 W/m2
13:29 40.6 °F /  4.8 °C 38.1 °F /  3.4 °C 30.26in /  1024.6hPa NNE 2.7mph /  4.3km/h 3mph /  4.8km/h 90.5% 0.00in /  0mm 102 W/m2
13:34 40.6 °F /  4.8 °C 37.9 °F /  3.3 °C 30.26in /  1024.6hPa NNE 3.1mph /  5km/h 3mph /  4.8km/h 90% 0.00in /  0mm 96 W/m2
13:39 40.8 °F /  4.9 °C 38.2 °F /  3.4 °C 30.26in /  1024.6hPa NNE 2.6mph /  4.2km/h 4mph /  6.4km/h 90.3% 0.00in /  0mm 90 W/m2
13:44 40.9 °F /  4.9 °C 38.3 °F /  3.5 °C 30.26in /  1024.6hPa NNE 2.8mph /  4.5km/h 3mph /  4.8km/h 90.5% 0.00in /  0mm 90 W/m2
13:49 41 °F /  5 °C 38.3 °F /  3.5 °C 30.26in /  1024.6hPa NNE 3.4mph /  5.5km/h 3.4mph /  5.5km/h 89.9% 0.00in /  0mm 86 W/m2
13:54 41 °F /  5 °C 38.2 °F /  3.4 °C 30.25in /  1024.3hPa NNE 3.5mph /  5.6km/h 5mph /  8km/h 89.6% 0.00in /  0mm 86 W/m2
13:59 41 °F /  5 °C 38.2 °F /  3.4 °C 30.25in /  1024.3hPa NNE 2.9mph /  4.7km/h 4mph /  6.4km/h 89.5% 0.00in /  0mm 84 W/m2
14:04 41.1 °F /  5.1 °C 38.1 °F /  3.4 °C 30.26in /  1024.6hPa North 3.2mph /  5.1km/h 4mph /  6.4km/h 89.1% 0.00in /  0mm 78 W/m2
14:09 41.1 °F /  5.1 °C 38.1 °F /  3.4 °C 30.25in /  1024.3hPa North 1.3mph /  2.1km/h 4mph /  6.4km/h 89% 0.00in /  0mm 70 W/m2
14:14 41 °F /  5 °C 38 °F /  3.3 °C 30.26in /  1024.6hPa NNE 2.7mph /  4.3km/h 2mph /  3.2km/h 89% 0.00in /  0mm 66 W/m2
14:19 40.8 °F /  4.9 °C 37.8 °F /  3.2 °C 30.25in /  1024.3hPa NE 2.5mph /  4km/h 3mph /  4.8km/h 89% 0.00in /  0mm 61 W/m2
14:24 40.8 °F /  4.9 °C 37.8 °F /  3.2 °C 30.25in /  1024.3hPa NE 2.4mph /  3.9km/h 3mph /  4.8km/h 89% 0.00in /  0mm 49 W/m2
14:29 40.8 °F /  4.9 °C 37.8 °F /  3.2 °C 30.25in /  1024.3hPa NE 2.5mph /  4km/h 3.4mph /  5.5km/h 89% 0.00in /  0mm 48 W/m2
14:34 40.8 °F /  4.9 °C 37.8 °F /  3.2 °C 30.25in /  1024.3hPa NE 3mph /  4.8km/h 4mph /  6.4km/h 89% 0.00in /  0mm 48 W/m2
14:39 40.7 °F /  4.8 °C 37.8 °F /  3.2 °C 30.25in /  1024.3hPa NE 1.9mph /  3.1km/h 4mph /  6.4km/h 89% 0.00in /  0mm 48 W/m2
14:44 40.6 °F /  4.8 °C 37.7 °F /  3.2 °C 30.25in /  1024.3hPa NE 2mph /  3.2km/h 2mph /  3.2km/h 89% 0.00in /  0mm 42 W/m2
14:49 40.6 °F /  4.8 °C 37.9 °F /  3.3 °C 30.25in /  1024.3hPa NE 2.2mph /  3.5km/h 2mph /  3.2km/h 89.9% 0.00in /  0mm 36 W/m2
14:54 40.7 °F /  4.8 °C 38 °F /  3.3 °C 30.25in /  1024.3hPa NNE 2.5mph /  4km/h 3mph /  4.8km/h 90% 0.00in /  0mm 32 W/m2
14:59 40.7 °F /  4.8 °C 38 °F /  3.3 °C 30.25in /  1024.3hPa NNE 2.2mph /  3.5km/h 3mph /  4.8km/h 90% 0.00in /  0mm 30 W/m2
15:04 40.7 °F /  4.8 °C 37.9 °F /  3.3 °C 30.25in /  1024.3hPa North 2.5mph /  4km/h 3mph /  4.8km/h 90% 0.00in /  0mm 28 W/m2
15:09 40.6 °F /  4.8 °C 37.9 °F /  3.3 °C 30.25in /  1024.3hPa North 2.6mph /  4.2km/h 3mph /  4.8km/h 90% 0.00in /  0mm 23 W/m2
15:14 40.6 °F /  4.8 °C 37.9 °F /  3.3 °C 30.25in /  1024.3hPa NNE 2.7mph /  4.3km/h 3mph /  4.8km/h 90% 0.00in /  0mm 20 W/m2
15:19 40.6 °F /  4.8 °C 37.9 °F /  3.3 °C 30.25in /  1024.3hPa NNE 2.6mph /  4.2km/h 3mph /  4.8km/h 90% 0.00in /  0mm 17 W/m2
15:24 40.6 °F /  4.8 °C 37.8 °F /  3.2 °C 30.25in /  1024.3hPa North 2mph /  3.2km/h 3mph /  4.8km/h 90% 0.00in /  0mm 14 W/m2
15:29 40.5 °F /  4.7 °C 37.8 °F /  3.2 °C 30.25in /  1024.3hPa North 1.9mph /  3.1km/h 2mph /  3.2km/h 90% 0.00in /  0mm 12 W/m2
15:34 40.5 °F /  4.7 °C 37.9 °F /  3.3 °C 30.25in /  1024.3hPa North 2.2mph /  3.5km/h 2mph /  3.2km/h 90.5% 0.00in /  0mm 9 W/m2
15:39 40.4 °F /  4.7 °C 38 °F /  3.3 °C 30.25in /  1024.3hPa North 2.2mph /  3.5km/h 2mph /  3.2km/h 91% 0.00in /  0mm 7 W/m2
15:44 40.3 °F /  4.6 °C 37.9 °F /  3.3 °C 30.25in /  1024.3hPa North 2mph /  3.2km/h 2mph /  3.2km/h 91% 0.00in /  0mm 4 W/m2
15:49 40.3 °F /  4.6 °C 37.9 °F /  3.3 °C 30.25in /  1024.3hPa North 1.6mph /  2.6km/h 2mph /  3.2km/h 91% 0.00in /  0mm 3 W/m2
15:54 40.2 °F /  4.6 °C 37.8 °F /  3.2 °C 30.25in /  1024.3hPa North 2.4mph /  3.9km/h 2mph /  3.2km/h 91% 0.00in /  0mm 2 W/m2
15:59 40.1 °F /  4.5 °C 37.7 °F /  3.2 °C 30.25in /  1024.3hPa North 2.4mph /  3.9km/h 3mph /  4.8km/h 91% 0.00in /  0mm 1 W/m2
16:04 40.1 °F /  4.5 °C 37.7 °F /  3.2 °C 30.25in /  1024.3hPa North 2.1mph /  3.4km/h 3mph /  4.8km/h 91% 0.00in /  0mm 0 W/m2
16:09 40.1 °F /  4.5 °C 37.7 °F /  3.2 °C 30.25in /  1024.3hPa North 1.7mph /  2.7km/h 2mph /  3.2km/h 91% 0.00in /  0mm 0 W/m2
16:14 40.1 °F /  4.5 °C 37.7 °F /  3.2 °C 30.25in /  1024.3hPa North 1.9mph /  3.1km/h 2mph /  3.2km/h 91% 0.00in /  0mm 0 W/m2
16:19 40.1 °F /  4.5 °C 37.7 °F /  3.2 °C 30.25in /  1024.3hPa North 0.9mph /  1.4km/h 2mph /  3.2km/h 91% 0.00in /  0mm 0 W/m2
16:24 40 °F /  4.4 °C 37.6 °F /  3.1 °C 30.25in /  1024.3hPa North 0.9mph /  1.4km/h 2mph /  3.2km/h 91% 0.00in /  0mm 0 W/m2
16:29 39.9 °F /  4.4 °C 38.1 °F /  3.4 °C 30.25in /  1024.3hPa NNE 0.2mph /  0.3km/h 1mph /  1.6km/h 92.9% 0.00in /  0mm 0 W/m2
16:34 39.9 °F /  4.4 °C 38.1 °F /  3.4 °C 30.25in /  1024.3hPa Calm     93% 0.00in /  0mm 0 W/m2
16:39 39.9 °F /  4.4 °C 38.2 °F /  3.4 °C 30.25in /  1024.3hPa Calm     93.7% 0.00in /  0mm 0 W/m2
16:44 39.8 °F /  4.3 °C 38.3 °F /  3.5 °C 30.25in /  1024.3hPa Calm     94% 0.00in /  0mm 0 W/m2
16:49 39.7 °F /  4.3 °C 38.3 °F /  3.5 °C 30.25in /  1024.3hPa Calm     94.5% 0.00in /  0mm 0 W/m2
16:54 39.7 °F /  4.3 °C 38.4 °F /  3.6 °C 30.25in /  1024.3hPa North 0.3mph /  0.5km/h   95.1% 0.00in /  0mm 0 W/m2
16:59 39.7 °F /  4.3 °C 38.6 °F /  3.7 °C 30.25in /  1024.3hPa North 0.4mph /  0.6km/h 1mph /  1.6km/h 95.9% 0.00in /  0mm 0 W/m2
17:04 39.6 °F /  4.2 °C 38.6 °F /  3.7 °C 30.25in /  1024.3hPa NW 1mph /  1.6km/h 1mph /  1.6km/h 96.2% 0.01in /  0.25mm 0 W/m2
17:09 39.6 °F /  4.2 °C 38.9 °F /  3.8 °C 30.25in /  1024.3hPa NNW 0.6mph /  1km/h 2mph /  3.2km/h 97.5% 0.01in /  0.25mm 0 W/m2
17:14 39.6 °F /  4.2 °C 39 °F /  3.9 °C 30.25in /  1024.3hPa NNW 0.4mph /  0.6km/h 1mph /  1.6km/h 98% 0.01in /  0.25mm 0 W/m2
17:19 39.4 °F /  4.1 °C 39.1 °F /  3.9 °C 30.25in /  1024.3hPa Calm   1mph /  1.6km/h 98.8% 0.01in /  0.25mm 0 W/m2
17:24 39.4 °F /  4.1 °C 39.1 °F /  3.9 °C 30.25in /  1024.3hPa WSW 0.7mph /  1.1km/h 1.1mph /  1.8km/h 99% 0.01in /  0.25mm 0 W/m2
17:29 39.2 °F /  4 °C 38.9 °F /  3.8 °C 30.25in /  1024.3hPa WSW 2mph /  3.2km/h 2mph /  3.2km/h 99% 0.01in /  0.25mm 0 W/m2
17:34 39.1 °F /  3.9 °C 38.8 °F /  3.8 °C 30.25in /  1024.3hPa WSW 1mph /  1.6km/h 2mph /  3.2km/h 99% 0.01in /  0.25mm 0 W/m2
17:39 39 °F /  3.9 °C 38.8 °F /  3.8 °C 30.25in /  1024.3hPa West 1.9mph /  3.1km/h 2mph /  3.2km/h 99% 0.01in /  0.25mm 0 W/m2
17:44 39 °F /  3.9 °C 38.8 °F /  3.8 °C 30.25in /  1024.3hPa West 2mph /  3.2km/h 2mph /  3.2km/h 99% 0.01in /  0.25mm 0 W/m2
17:49 38.9 °F /  3.8 °C 38.7 °F /  3.7 °C 30.25in /  1024.3hPa West 1.9mph /  3.1km/h 2mph /  3.2km/h 99% 0.01in /  0.25mm 0 W/m2
17:54 38.8 °F /  3.8 °C 38.6 °F /  3.7 °C 30.25in /  1024.3hPa West 1.9mph /  3.1km/h 2mph /  3.2km/h 99% 0.01in /  0.25mm 0 W/m2
17:59 38.7 °F /  3.7 °C 38.5 °F /  3.6 °C 30.25in /  1024.3hPa WNW 2mph /  3.2km/h 2mph /  3.2km/h 99% 0.01in /  0.25mm 0 W/m2
18:04 38.7 °F /  3.7 °C 38.4 °F /  3.6 °C 30.25in /  1024.3hPa NW 0.7mph /  1.1km/h 2mph /  3.2km/h 99% 0.01in /  0.25mm 0 W/m2
18:09 38.7 °F /  3.7 °C 38.4 °F /  3.6 °C 30.25in /  1024.3hPa NNW 1.6mph /  2.6km/h 2mph /  3.2km/h 99% 0.01in /  0.25mm 0 W/m2
18:14 38.7 °F /  3.7 °C 38.4 °F /  3.6 °C 30.25in /  1024.3hPa NW 2.2mph /  3.5km/h 2mph /  3.2km/h 99% 0.01in /  0.25mm 0 W/m2
18:19 38.6 °F /  3.7 °C 38.3 °F /  3.5 °C 30.25in /  1024.3hPa WNW 1.9mph /  3.1km/h 2mph /  3.2km/h 99% 0.01in /  0.25mm 0 W/m2
18:24 38.5 °F /  3.6 °C 38.2 °F /  3.4 °C 30.25in /  1024.3hPa West 2.1mph /  3.4km/h 2mph /  3.2km/h 99% 0.01in /  0.25mm 0 W/m2
18:29 38.5 °F /  3.6 °C 38.2 °F /  3.4 °C 30.25in /  1024.3hPa West 2.1mph /  3.4km/h 2mph /  3.2km/h 99% 0.01in /  0.25mm 0 W/m2
18:34 38.5 °F /  3.6 °C 38.2 °F /  3.4 °C 30.25in /  1024.3hPa WNW 1.8mph /  2.9km/h 2mph /  3.2km/h 99% 0.01in /  0.25mm 0 W/m2
18:39 38.5 °F /  3.6 °C 38.2 °F /  3.4 °C 30.25in /  1024.3hPa West 2.2mph /  3.5km/h 2mph /  3.2km/h 99% 0.01in /  0.25mm 0 W/m2
18:44 38.4 °F /  3.6 °C 38.1 °F /  3.4 °C 30.24in /  1023.9hPa West 2mph /  3.2km/h 2mph /  3.2km/h 99% 0.01in /  0.25mm 0 W/m2
18:49 38.3 °F /  3.5 °C 38.1 °F /  3.4 °C 30.24in /  1023.9hPa WNW 2.3mph /  3.7km/h 2mph /  3.2km/h 99% 0.01in /  0.25mm 0 W/m2
18:54 38.4 °F /  3.6 °C 38.1 °F /  3.4 °C 30.24in /  1023.9hPa WNW 2.5mph /  4km/h 3mph /  4.8km/h 99% 0.01in /  0.25mm 0 W/m2
18:59 38.3 °F /  3.5 °C 38 °F /  3.3 °C 30.24in /  1023.9hPa West 3.1mph /  5km/h 3mph /  4.8km/h 99% 0.01in /  0.25mm 0 W/m2
19:04 38.3 °F /  3.5 °C 38 °F /  3.3 °C 30.24in /  1023.9hPa West 3.3mph /  5.3km/h 4mph /  6.4km/h 99% 0.01in /  0.25mm 0 W/m2
19:09 38.3 °F /  3.5 °C 38 °F /  3.3 °C 30.24in /  1023.9hPa West 3.6mph /  5.8km/h 4mph /  6.4km/h 99% 0.01in /  0.25mm 0 W/m2
19:14 38.2 °F /  3.4 °C 37.9 °F /  3.3 °C 30.24in /  1023.9hPa West 4.4mph /  7.1km/h 5mph /  8km/h 99% 0.01in /  0.25mm 0 W/m2
19:19 38.1 °F /  3.4 °C 37.9 °F /  3.3 °C 30.24in /  1023.9hPa West 4.2mph /  6.8km/h 6mph /  9.7km/h 99% 0.01in /  0.25mm 0 W/m2
19:24 38.1 °F /  3.4 °C 37.9 °F /  3.3 °C 30.24in /  1023.9hPa West 3mph /  4.8km/h 5mph /  8km/h 99% 0.01in /  0.25mm 0 W/m2
19:29 38 °F /  3.3 °C 37.8 °F /  3.2 °C 30.24in /  1023.9hPa West 3.4mph /  5.5km/h 3mph /  4.8km/h 99% 0.01in /  0.25mm 0 W/m2
19:34 37.9 °F /  3.3 °C 37.7 °F /  3.2 °C 30.24in /  1023.9hPa WNW 3mph /  4.8km/h 4mph /  6.4km/h 99% 0.01in /  0.25mm 0 W/m2
19:39 37.9 °F /  3.3 °C 37.7 °F /  3.2 °C 30.24in /  1023.9hPa WNW 2.9mph /  4.7km/h 3mph /  4.8km/h 99% 0.01in /  0.25mm 0 W/m2
19:44 37.9 °F /  3.3 °C 37.7 °F /  3.2 °C 30.24in /  1023.9hPa NW 3.7mph /  6km/h 6mph /  9.7km/h 99% 0.01in /  0.25mm 0 W/m2
19:49 37.9 °F /  3.3 °C 37.7 °F /  3.2 °C 30.24in /  1023.9hPa NW 3mph /  4.8km/h 6mph /  9.7km/h 99% 0.01in /  0.25mm 0 W/m2
19:54 37.9 °F /  3.3 °C 37.7 °F /  3.2 °C 30.24in /  1023.9hPa NW 3.1mph /  5km/h 3mph /  4.8km/h 99% 0.01in /  0.25mm 0 W/m2
19:59 37.8 °F /  3.2 °C 37.6 °F /  3.1 °C 30.24in /  1023.9hPa NW 3.3mph /  5.3km/h 3mph /  4.8km/h 99% 0.01in /  0.25mm 0 W/m2
20:04 37.8 °F /  3.2 °C 37.5 °F /  3.1 °C 30.24in /  1023.9hPa NW 2.2mph /  3.5km/h 4mph /  6.4km/h 99% 0.01in /  0.25mm 0 W/m2
20:09 37.8 °F /  3.2 °C 37.5 °F /  3.1 °C 30.24in /  1023.9hPa NW 2mph /  3.2km/h 2mph /  3.2km/h 99% 0.01in /  0.25mm 0 W/m2
20:14 37.8 °F /  3.2 °C 37.5 °F /  3.1 °C 30.24in /  1023.9hPa WNW 2.5mph /  4km/h 3mph /  4.8km/h 99% 0.01in /  0.25mm 0 W/m2
20:19 37.8 °F /  3.2 °C 37.5 °F /  3.1 °C 30.24in /  1023.9hPa West 3.2mph /  5.1km/h 3mph /  4.8km/h 99% 0.01in /  0.25mm 0 W/m2
20:24 37.8 °F /  3.2 °C 37.5 °F /  3.1 °C 30.24in /  1023.9hPa West 3.2mph /  5.1km/h 3mph /  4.8km/h 99% 0.01in /  0.25mm 0 W/m2
20:29 37.6 °F /  3.1 °C 37.3 °F /  2.9 °C 30.24in /  1023.9hPa West 3.4mph /  5.5km/h 5mph /  8km/h 99% 0.01in /  0.25mm 0 W/m2
20:34 37.6 °F /  3.1 °C 37.3 °F /  2.9 °C 30.24in /  1023.9hPa West 2.9mph /  4.7km/h 4mph /  6.4km/h 99% 0.01in /  0.25mm 0 W/m2
20:39 37.4 °F /  3 °C 37.1 °F /  2.8 °C 30.24in /  1023.9hPa West 3.3mph /  5.3km/h 3mph /  4.8km/h 99% 0.01in /  0.25mm 0 W/m2
20:44 37.4 °F /  3 °C 37.1 °F /  2.8 °C 30.24in /  1023.9hPa West 3.8mph /  6.1km/h 4mph /  6.4km/h 99% 0.01in /  0.25mm 0 W/m2
20:49 37.4 °F /  3 °C 37.1 °F /  2.8 °C 30.24in /  1023.9hPa West 3.6mph /  5.8km/h 6mph /  9.7km/h 99% 0.01in /  0.25mm 0 W/m2
20:54 37.4 °F /  3 °C 37.1 °F /  2.8 °C 30.24in /  1023.9hPa West 2.9mph /  4.7km/h 6mph /  9.7km/h 99% 0.01in /  0.25mm 0 W/m2
20:59 37.4 °F /  3 °C 37.1 °F /  2.8 °C 30.24in /  1023.9hPa West 2.2mph /  3.5km/h 3mph /  4.8km/h 99% 0.01in /  0.25mm 0 W/m2
21:04 37.2 °F /  2.9 °C 37 °F /  2.8 °C 30.24in /  1023.9hPa West 1.8mph /  2.9km/h 2mph /  3.2km/h 99% 0.01in /  0.25mm 0 W/m2
21:09 37.2 °F /  2.9 °C 37 °F /  2.8 °C 30.24in /  1023.9hPa WSW 2.5mph /  4km/h 2mph /  3.2km/h 99% 0.01in /  0.25mm 0 W/m2
21:14 37.2 °F /  2.9 °C 37 °F /  2.8 °C 30.24in /  1023.9hPa WSW 2.2mph /  3.5km/h 3mph /  4.8km/h 99% 0.01in /  0.25mm 0 W/m2
21:19 37.2 °F /  2.9 °C 37 °F /  2.8 °C 30.23in /  1023.6hPa WSW 2.2mph /  3.5km/h 2mph /  3.2km/h 99% 0.01in /  0.25mm 0 W/m2
21:24 37.1 °F /  2.8 °C 36.9 °F /  2.7 °C 30.23in /  1023.6hPa West 2.4mph /  3.9km/h 2mph /  3.2km/h 99% 0.01in /  0.25mm 0 W/m2
21:29 37.1 °F /  2.8 °C 36.9 °F /  2.7 °C 30.23in /  1023.6hPa West 2.5mph /  4km/h 3mph /  4.8km/h 99% 0.02in /  0.51mm 0 W/m2
21:34 37.2 °F /  2.9 °C 37 °F /  2.8 °C 30.23in /  1023.6hPa West 2.3mph /  3.7km/h 3mph /  4.8km/h 99% 0.02in /  0.51mm 0 W/m2
21:39 37.1 °F /  2.8 °C 36.9 °F /  2.7 °C 30.23in /  1023.6hPa WSW 2.6mph /  4.2km/h 3mph /  4.8km/h 99% 0.02in /  0.51mm 0 W/m2
21:44 37 °F /  2.8 °C 36.8 °F /  2.7 °C 30.23in /  1023.6hPa WSW 3mph /  4.8km/h 3mph /  4.8km/h 99% 0.02in /  0.51mm 0 W/m2
21:49 37.1 °F /  2.8 °C 36.9 °F /  2.7 °C 30.23in /  1023.6hPa West 2.5mph /  4km/h 4mph /  6.4km/h 99% 0.02in /  0.51mm 0 W/m2
21:54 37 °F /  2.8 °C 36.8 °F /  2.7 °C 30.23in /  1023.6hPa West 2mph /  3.2km/h 2mph /  3.2km/h 99% 0.02in /  0.51mm 0 W/m2
21:59 37 °F /  2.8 °C 36.8 °F /  2.7 °C 30.23in /  1023.6hPa West 2.2mph /  3.5km/h 2mph /  3.2km/h 99% 0.01in /  0.25mm 0 W/m2
22:04 37 °F /  2.8 °C 36.8 °F /  2.7 °C 30.23in /  1023.6hPa WSW 2.1mph /  3.4km/h 2mph /  3.2km/h 99% 0.01in /  0.25mm 0 W/m2
22:09 37 °F /  2.8 °C 36.8 °F /  2.7 °C 30.23in /  1023.6hPa West 1.7mph /  2.7km/h 2mph /  3.2km/h 99% 0.01in /  0.25mm 0 W/m2
22:14 37 °F /  2.8 °C 36.8 °F /  2.7 °C 30.23in /  1023.6hPa West 2.1mph /  3.4km/h 2mph /  3.2km/h 99% 0.01in /  0.25mm 0 W/m2
22:19 37 °F /  2.8 °C 36.8 °F /  2.7 °C 30.23in /  1023.6hPa West 2.2mph /  3.5km/h 2mph /  3.2km/h 99% 0.06in /  1.52mm 0 W/m2
22:24 37 °F /  2.8 °C 36.8 °F /  2.7 °C 30.23in /  1023.6hPa West 2.2mph /  3.5km/h 2mph /  3.2km/h 99% 0.06in /  1.52mm 0 W/m2
22:29 37 °F /  2.8 °C 36.8 °F /  2.7 °C 30.23in /  1023.6hPa West 2.1mph /  3.4km/h 2mph /  3.2km/h 99% 0.06in /  1.52mm 0 W/m2
22:34 37 °F /  2.8 °C 36.8 °F /  2.7 °C 30.23in /  1023.6hPa West 2.1mph /  3.4km/h 2mph /  3.2km/h 99% 0.06in /  1.52mm 0 W/m2
22:39 37 °F /  2.8 °C 36.8 °F /  2.7 °C 30.22in /  1023.2hPa West 1.8mph /  2.9km/h 2mph /  3.2km/h 99% 0.06in /  1.52mm 0 W/m2
22:44 37 °F /  2.8 °C 36.8 °F /  2.7 °C 30.22in /  1023.2hPa WNW 1.3mph /  2.1km/h 2mph /  3.2km/h 99% 0.06in /  1.52mm 0 W/m2
22:49 37 °F /  2.8 °C 36.8 °F /  2.7 °C 30.22in /  1023.2hPa NW 1.8mph /  2.9km/h 2mph /  3.2km/h 99% 0.05in /  1.27mm 0 W/m2
22:54 37 °F /  2.8 °C 36.8 °F /  2.7 °C 30.22in /  1023.2hPa NW 1.1mph /  1.8km/h 2mph /  3.2km/h 99% 0.05in /  1.27mm 0 W/m2
22:59 37 °F /  2.8 °C 36.8 °F /  2.7 °C 30.22in /  1023.2hPa WNW 1.2mph /  1.9km/h 2mph /  3.2km/h 99% 0.05in /  1.27mm 0 W/m2
23:04 37 °F /  2.8 °C 36.8 °F /  2.7 °C 30.22in /  1023.2hPa NW 1.8mph /  2.9km/h 2mph /  3.2km/h 99% 0.05in /  1.27mm 0 W/m2
23:09 37 °F /  2.8 °C 36.7 °F /  2.6 °C 30.22in /  1023.2hPa WNW 1.3mph /  2.1km/h 2mph /  3.2km/h 99% 0.05in /  1.27mm 0 W/m2
23:14 36.9 °F /  2.7 °C 36.6 °F /  2.6 °C 30.22in /  1023.2hPa West 1.1mph /  1.8km/h 2mph /  3.2km/h 99% 0.05in /  1.27mm 0 W/m2
23:19 36.9 °F /  2.7 °C 36.6 °F /  2.6 °C 30.22in /  1023.2hPa West 1.4mph /  2.3km/h 1.1mph /  1.8km/h 99% 0.05in /  1.27mm 0 W/m2
23:24 36.9 °F /  2.7 °C 36.6 °F /  2.6 °C 30.22in /  1023.2hPa WSW 1.7mph /  2.7km/h 2mph /  3.2km/h 99% 0.00in /  0mm 0 W/m2
23:29 36.9 °F /  2.7 °C 36.6 °F /  2.6 °C 30.22in /  1023.2hPa SW 1.4mph /  2.3km/h 2mph /  3.2km/h 99% 0.00in /  0mm 0 W/m2
23:34 36.9 °F /  2.7 °C 36.6 °F /  2.6 °C 30.22in /  1023.2hPa SW 2.1mph /  3.4km/h 2mph /  3.2km/h 99% 0.00in /  0mm 0 W/m2
23:39 36.9 °F /  2.7 °C 36.6 °F /  2.6 °C 30.22in /  1023.2hPa WSW 1.7mph /  2.7km/h 2mph /  3.2km/h 99% 0.00in /  0mm 0 W/m2
23:44 36.9 °F /  2.7 °C 36.6 °F /  2.6 °C 30.22in /  1023.2hPa WSW 1.4mph /  2.3km/h 2mph /  3.2km/h 99% 0.00in /  0mm 0 W/m2
23:49 36.7 °F /  2.6 °C 36.4 °F /  2.4 °C 30.21in /  1022.9hPa SW 2.2mph /  3.5km/h 2mph /  3.2km/h 99% 0.00in /  0mm 0 W/m2
23:54 36.5 °F /  2.5 °C 36.2 °F /  2.3 °C 30.21in /  1022.9hPa SSW 2.4mph /  3.9km/h 2mph /  3.2km/h 99% 0.00in /  0mm 0 W/m2
23:59 36.5 °F /  2.5 °C 36.2 °F /  2.3 °C 30.21in /  1022.9hPa South 2.3mph /  3.7km/h 3mph /  4.8km/h 99% 0.00in /  0mm 0 W/m2
Knjazevac, Serbia
Compliments of Weather Underground - 4 mb